Hlavní strana
METAR-TAF:

METAR-TAF

Letiště :

Georgetown, Ascension

zeměpisná šířka: 07-58S, zeměpisná délka: 014-24W, výška: 86 m

Aktuální stav počasí

Zpráva byla vytvořena před 21 hodinami a 6 minutami, v 07:50 UTC
Jihovýchodní vítr 15 kt
Teplota 24°C
Vlhkost vzduchu 69%
Tlak 1016 hPa
Viditelnost 10 km a více
Skoro jasno ve výšce 2000 ft

METAR: FHAW 170750Z 13015KT 9999 FEW020 24/18 Q1016 BLU NOSIG

Čas: 04:56 (04:56 UTC)

Předpověď počasí

Zpráva byla vytvořena před 21 hodinami a 26 minutami, v 07:30 UTC
Předpověď platná od 17 v 09 UTC do 18 v 03 UTC
Jihovýchodní vítr 14 kt
Viditelnost 10 km a více
Skoro jasno ve výšce 1800 ft
Oblačno až skoro zataženo ve výšce 3500 ft
Dočasný
od 17 v 09 UTC do 18 v 03 UTC
Polojasno ve výšce 1400 ft
Pravděpodobnost 30% :
Dočasný
od 17 v 21 UTC do 18 v 03 UTC
Viditelnost: 4000 m
Polojasno ve výšce 600 ft
dešťové přeháňky

TAF: FHAW 170730Z 1709/1803 13014KT 9999 FEW018 BKN035 TEMPO 1709/1803 SCT014 PROB30 TEMPO 1721/1803 4000 SHRA SCT006

Stav a předpovědi počasí z více než 4 000 letišť (zprávy METAR a TAF).

Červené a žluté tečky na mapě představují dostupné meteorologické stanice.

Když kurzor umístíte na tečku, zobrazí se název stanice.

Pak kliknutím zobrazíte stav a předpověď počasí.

Chcete-li změnit mapu, kliknutím na zelené tlačítko se znaménkem +mapu přiblížíte, kliknutím na zelené tlačítko se znaménkem – mapu oddálíte a kliknutím na zelené šipky přejdete na sousední mapy.


METAR-TAF: